createdAt,value
2022-09-20T00:02:13.289Z,12.37
2022-09-20T00:07:16.424Z,12.29
2022-09-20T00:12:19.465Z,12.33
2022-09-20T00:17:23.764Z,12.38
2022-09-20T00:22:27.557Z,12.37
2022-09-20T00:27:31.133Z,12.43
2022-09-20T00:32:35.398Z,12.52
2022-09-20T00:37:39.865Z,12.55
2022-09-20T00:42:42.955Z,12.41
2022-09-20T00:47:51.366Z,12.27
2022-09-20T00:52:59.271Z,12.19
2022-09-20T00:58:02.827Z,12.31
2022-09-20T01:03:10.013Z,12.29
2022-09-20T01:08:13.753Z,12.24
2022-09-20T01:13:16.842Z,12.22
2022-09-20T01:18:24.113Z,12.21
2022-09-20T01:23:37.841Z,12.21
2022-09-20T01:28:47.738Z,12.24
2022-09-20T01:33:54.433Z,12.21
2022-09-20T01:39:14.604Z,12.14
2022-09-20T01:44:29.591Z,12.12
2022-09-20T01:49:41.785Z,12.12
2022-09-20T01:55:13.542Z,12.20
2022-09-20T02:00:21.776Z,12.38
2022-09-20T02:06:03.751Z,12.50
2022-09-20T02:11:15.023Z,12.60
2022-09-20T02:16:48.726Z,12.62
2022-09-20T02:22:05.481Z,12.70
2022-09-20T02:27:19.406Z,12.65
2022-09-20T02:32:46.423Z,12.60
2022-09-20T02:38:01.888Z,12.45
2022-09-20T02:43:14.302Z,12.35
2022-09-20T02:48:25.475Z,12.44
2022-09-20T02:53:38.921Z,12.49
2022-09-20T02:58:53.385Z,12.51
2022-09-20T03:04:09.213Z,12.54
2022-09-20T03:09:19.724Z,12.58
2022-09-20T03:14:27.654Z,12.68
2022-09-20T03:19:56.966Z,12.69
2022-09-20T03:25:32.152Z,12.70
2022-09-20T03:30:52.112Z,12.63
2022-09-20T03:36:11.960Z,12.64
2022-09-20T03:41:48.602Z,12.66
2022-09-20T03:46:57.932Z,12.61
2022-09-20T03:52:15.963Z,12.64
2022-09-20T03:57:36.476Z,12.57
2022-09-20T04:03:00.572Z,12.52
2022-09-20T04:08:18.427Z,12.52
2022-09-20T04:13:35.773Z,12.44
2022-09-20T04:18:46.450Z,12.39
2022-09-20T04:23:57.489Z,12.36
2022-09-20T04:29:14.578Z,12.35
2022-09-20T04:34:24.175Z,12.37
2022-09-20T04:39:42.582Z,12.33
2022-09-20T04:45:16.734Z,12.33
2022-09-20T04:50:40.379Z,12.34
2022-09-20T04:55:57.027Z,12.42
2022-09-20T05:01:33.282Z,12.44
2022-09-20T05:07:03.352Z,12.44
2022-09-20T05:12:39.014Z,12.41
2022-09-20T05:18:05.956Z,12.43
2022-09-20T05:23:29.900Z,12.39
2022-09-20T05:28:40.347Z,12.47
2022-09-20T05:33:53.669Z,12.46
2022-09-20T05:39:03.925Z,12.41
2022-09-20T05:44:20.663Z,12.47
2022-09-20T05:49:41.235Z,12.50
2022-09-20T05:55:13.903Z,12.55
2022-09-20T06:00:21.551Z,12.60
2022-09-20T06:05:34.962Z,12.61
2022-09-20T06:10:51.622Z,12.58
2022-09-20T06:16:01.252Z,12.52
2022-09-20T06:21:16.766Z,12.51
2022-09-20T06:26:25.171Z,12.58
2022-09-20T06:31:29.640Z,12.71
2022-09-20T06:36:51.460Z,12.66
2022-09-20T06:41:56.320Z,12.69
2022-09-20T06:47:00.680Z,12.69
2022-09-20T06:52:05.730Z,12.68
2022-09-20T06:57:08.786Z,12.74
2022-09-20T07:02:13.215Z,12.78
2022-09-20T07:07:19.097Z,12.85
2022-09-20T07:12:22.224Z,12.90
2022-09-20T07:17:26.939Z,12.94
2022-09-20T07:22:29.912Z,13.02
2022-09-20T07:27:32.851Z,13.08
2022-09-20T07:32:39.816Z,13.08
2022-09-20T07:37:43.532Z,13.12
2022-09-20T07:42:46.667Z,13.18
2022-09-20T07:47:50.955Z,13.22
2022-09-20T07:52:57.379Z,13.24
2022-09-20T07:58:00.544Z,13.39
2022-09-20T08:03:06.063Z,13.61
2022-09-20T08:08:09.641Z,13.81
2022-09-20T08:18:38.308Z,14.26
2022-09-20T08:23:43.512Z,14.55
2022-09-20T08:28:47.390Z,14.74
2022-09-20T08:33:53.181Z,15.01
2022-09-20T08:44:26.465Z,15.32
2022-09-20T08:49:32.004Z,15.38
2022-09-20T08:54:36.325Z,15.50
2022-09-20T08:59:40.973Z,15.63
2022-09-20T09:04:45.756Z,15.56
2022-09-20T09:09:51.944Z,15.60
2022-09-20T09:14:59.722Z,15.93
2022-09-20T09:20:16.925Z,16.35
2022-09-20T09:25:25.618Z,16.53
2022-09-20T09:30:33.097Z,16.52
2022-09-20T09:35:38.484Z,16.63
2022-09-20T09:40:51.326Z,16.98
2022-09-20T09:45:55.481Z,17.16
2022-09-20T09:51:15.503Z,17.30
2022-09-20T09:56:39.292Z,17.56
2022-09-20T10:01:50.293Z,17.72
2022-09-20T10:07:04.412Z,18.27
2022-09-20T10:12:30.200Z,18.73
2022-09-20T10:17:48.435Z,18.57
2022-09-20T10:23:34.532Z,18.18
2022-09-20T10:28:48.596Z,17.92
2022-09-20T10:34:07.687Z,17.66
2022-09-20T10:39:20.139Z,17.75
2022-09-20T10:44:40.398Z,17.95
2022-09-20T10:49:50.982Z,17.93
2022-09-20T10:55:10.035Z,17.96
2022-09-20T11:00:25.245Z,17.90
2022-09-20T11:05:35.056Z,17.64
2022-09-20T11:10:48.089Z,17.44
2022-09-20T11:15:59.561Z,17.63
2022-09-20T11:21:09.425Z,17.79
2022-09-20T11:26:20.022Z,18.03
2022-09-20T11:31:28.238Z,18.05
2022-09-20T11:36:40.872Z,18.10
2022-09-20T11:41:46.932Z,18.17
2022-09-20T11:46:56.897Z,17.93
2022-09-20T11:52:36.114Z,18.23
2022-09-20T11:57:40.930Z,18.53
2022-09-20T12:02:50.513Z,18.50
2022-09-20T12:07:56.159Z,18.55
2022-09-20T12:13:02.250Z,19.17
2022-09-20T12:18:37.955Z,19.40
2022-09-20T12:24:21.380Z,18.78
2022-09-20T12:30:16.103Z,18.74
2022-09-20T12:36:01.299Z,19.30
2022-09-20T12:41:12.821Z,19.83
2022-09-20T12:46:23.199Z,20.12
2022-09-20T12:51:50.952Z,20.31
2022-09-20T12:56:56.274Z,20.03
2022-09-20T13:02:49.409Z,19.87
2022-09-20T13:08:01.462Z,19.80
2022-09-20T13:13:32.169Z,19.37
2022-09-20T13:18:37.952Z,19.08
2022-09-20T13:23:49.728Z,19.10
2022-09-20T13:28:56.344Z,18.76
2022-09-20T13:34:29.763Z,18.58
2022-09-20T13:39:39.609Z,18.49
2022-09-20T13:44:44.930Z,18.57
2022-09-20T13:49:48.238Z,18.37
2022-09-20T13:54:51.366Z,18.30
2022-09-20T13:59:58.219Z,18.31
2022-09-20T14:05:04.698Z,18.18
2022-09-20T14:10:28.313Z,18.11
2022-09-20T14:15:37.308Z,17.99
2022-09-20T14:20:43.664Z,17.75
2022-09-20T14:26:07.082Z,17.68
2022-09-20T14:31:17.430Z,18.18
2022-09-20T14:36:23.824Z,18.20
2022-09-20T14:41:29.811Z,18.08
2022-09-20T14:46:36.266Z,18.16
2022-09-20T14:51:39.407Z,18.44
2022-09-20T14:56:49.349Z,18.57
2022-09-20T15:02:03.499Z,18.53
2022-09-20T15:07:08.477Z,18.25
2022-09-20T15:12:17.902Z,18.07
2022-09-20T15:17:23.763Z,18.27
2022-09-20T15:22:27.484Z,18.52
2022-09-20T15:27:30.427Z,18.34
2022-09-20T15:32:34.805Z,18.44
2022-09-20T15:37:38.394Z,18.64
2022-09-20T15:42:41.920Z,18.71
2022-09-20T15:47:46.810Z,18.72
2022-09-20T15:52:50.472Z,18.78
2022-09-20T15:57:53.504Z,19.09
2022-09-20T16:02:57.918Z,19.40
2022-09-20T16:08:00.798Z,19.52
2022-09-20T16:13:03.691Z,19.76
2022-09-20T16:18:26.560Z,20.05
2022-09-20T16:23:29.617Z,19.83
2022-09-20T16:28:32.779Z,19.72
2022-09-20T16:33:37.640Z,19.54
2022-09-20T16:38:44.988Z,19.19
2022-09-20T16:43:52.169Z,18.97
2022-09-20T16:49:00.261Z,18.72
2022-09-20T16:54:04.479Z,18.53
2022-09-20T16:59:08.332Z,18.50
2022-09-20T17:04:14.352Z,18.43
2022-09-20T17:09:17.684Z,18.12
2022-09-20T17:14:21.938Z,17.85
2022-09-20T17:19:26.952Z,17.69
2022-09-20T17:24:30.627Z,17.33
2022-09-20T17:29:33.763Z,17.03
2022-09-20T17:34:38.064Z,16.83
2022-09-20T17:39:41.742Z,16.64
2022-09-20T17:44:45.024Z,16.45
2022-09-20T17:49:49.377Z,16.36
2022-09-20T17:54:52.441Z,16.27
2022-09-20T17:59:55.644Z,16.17
2022-09-20T18:04:59.879Z,16.08
2022-09-20T18:10:02.911Z,15.99
2022-09-20T18:15:07.264Z,15.91
2022-09-20T18:20:14.184Z,15.83
2022-09-20T18:25:21.439Z,15.73
2022-09-20T18:30:27.708Z,15.62
2022-09-20T18:35:35.042Z,15.53
2022-09-20T18:40:38.500Z,15.43
2022-09-20T18:45:42.659Z,15.31
2022-09-20T18:50:57.555Z,15.17
2022-09-20T18:56:07.700Z,15.05
2022-09-20T19:01:35.497Z,14.96
2022-09-20T19:06:44.779Z,14.93
2022-09-20T19:11:55.474Z,14.88
2022-09-20T19:17:02.486Z,14.77
2022-09-20T19:22:16.293Z,14.67
2022-09-20T19:27:23.497Z,14.63
2022-09-20T19:32:27.869Z,14.53
2022-09-20T19:37:39.235Z,14.40
2022-09-20T19:42:55.063Z,14.34
2022-09-20T19:48:06.168Z,14.27
2022-09-20T19:53:12.397Z,14.19
2022-09-20T19:58:16.542Z,14.08
2022-09-20T20:03:23.600Z,13.97
2022-09-20T20:08:36.159Z,13.88
2022-09-20T20:14:07.898Z,13.78
2022-09-20T20:19:36.307Z,13.68
2022-09-20T20:24:46.814Z,13.58
2022-09-20T20:29:50.382Z,13.48
2022-09-20T20:34:53.310Z,13.37
2022-09-20T20:39:57.677Z,13.28
2022-09-20T20:45:00.615Z,13.20
2022-09-20T20:50:03.557Z,13.12
2022-09-20T20:55:08.722Z,13.04
2022-09-20T21:00:12.584Z,12.93
2022-09-20T21:05:15.664Z,12.82
2022-09-20T21:10:21.843Z,12.75
2022-09-20T21:15:24.715Z,12.76
2022-09-20T21:20:27.785Z,12.75
2022-09-20T21:25:32.133Z,12.73
2022-09-20T21:30:35.189Z,12.72
2022-09-20T21:35:38.066Z,12.72
2022-09-20T21:40:43.216Z,12.71
2022-09-20T21:45:46.507Z,12.72
2022-09-20T21:50:49.576Z,12.74
2022-09-20T21:55:58.557Z,12.75
2022-09-20T22:01:03.613Z,12.73
2022-09-20T22:06:08.863Z,12.76
2022-09-20T22:11:15.101Z,12.77
2022-09-20T22:16:20.617Z,12.75
2022-09-20T22:21:26.040Z,12.71
2022-09-20T22:26:32.780Z,12.66
2022-09-20T22:31:39.159Z,12.57
2022-09-20T22:36:43.397Z,12.49
2022-09-20T22:41:49.157Z,12.41
2022-09-20T22:46:52.639Z,12.31
2022-09-20T22:51:55.947Z,12.23
2022-09-20T22:57:01.554Z,12.15
2022-09-20T23:02:05.391Z,12.12
2022-09-20T23:07:09.219Z,12.07
2022-09-20T23:12:13.916Z,12.06
2022-09-20T23:17:17.385Z,11.99
2022-09-20T23:22:20.958Z,11.97
2022-09-20T23:27:25.775Z,11.91
2022-09-20T23:32:29.345Z,11.90
2022-09-20T23:37:32.649Z,11.90
2022-09-20T23:42:37.354Z,11.88
2022-09-20T23:47:40.595Z,11.86
2022-09-20T23:52:43.817Z,11.70
2022-09-20T23:57:51.019Z,11.67
